createdAt,value
2022-12-31T00:01:56.674Z,15.34
2022-12-31T00:06:58.183Z,15.38
2022-12-31T00:11:59.611Z,15.39
2022-12-31T00:17:01.048Z,15.35
2022-12-31T00:22:02.493Z,15.39
2022-12-31T00:27:03.952Z,15.41
2022-12-31T00:32:05.795Z,15.35
2022-12-31T00:37:07.223Z,15.26
2022-12-31T00:42:08.645Z,15.25
2022-12-31T00:47:10.067Z,15.22
2022-12-31T00:52:13.833Z,15.23
2022-12-31T00:57:15.262Z,15.32
2022-12-31T01:02:16.857Z,15.43
2022-12-31T01:07:18.436Z,15.40
2022-12-31T01:12:19.878Z,15.32
2022-12-31T01:17:21.480Z,15.31
2022-12-31T01:22:22.852Z,15.35
2022-12-31T01:27:24.291Z,15.42
2022-12-31T01:32:25.718Z,15.32
2022-12-31T01:37:28.018Z,15.24
2022-12-31T01:42:29.469Z,15.33
2022-12-31T01:47:37.420Z,15.45
2022-12-31T01:52:42.516Z,15.42
2022-12-31T01:57:47.574Z,15.44
2022-12-31T02:02:49.703Z,15.55
2022-12-31T02:07:53.320Z,15.67
2022-12-31T02:12:55.095Z,15.79
2022-12-31T02:18:01.252Z,15.82
2022-12-31T02:23:27.149Z,15.84
2022-12-31T02:28:31.698Z,15.88
2022-12-31T02:33:38.831Z,15.98
2022-12-31T02:38:44.615Z,16.05
2022-12-31T02:43:47.224Z,16.05
2022-12-31T02:48:55.911Z,16.10
2022-12-31T02:54:16.750Z,16.20
2022-12-31T02:59:59.474Z,16.36
2022-12-31T03:05:02.352Z,16.37
2022-12-31T03:10:04.024Z,16.43
2022-12-31T03:15:07.009Z,16.56
2022-12-31T03:20:27.601Z,16.56
2022-12-31T03:25:40.851Z,16.61
2022-12-31T03:30:44.981Z,16.70
2022-12-31T03:35:48.422Z,16.77
2022-12-31T03:40:52.326Z,16.77
2022-12-31T03:45:55.062Z,16.75
2022-12-31T03:50:56.461Z,16.71
2022-12-31T03:55:57.857Z,16.75
2022-12-31T04:00:59.401Z,16.81
2022-12-31T04:06:00.902Z,16.86
2022-12-31T04:11:02.318Z,16.92
2022-12-31T04:16:03.852Z,16.96
2022-12-31T04:21:05.879Z,17.03
2022-12-31T04:26:07.531Z,17.01
2022-12-31T04:31:09.089Z,16.99
2022-12-31T04:36:10.812Z,16.90
2022-12-31T04:41:18.029Z,16.82
2022-12-31T04:46:22.470Z,16.78
2022-12-31T04:51:24.738Z,16.81
2022-12-31T04:56:27.439Z,16.80
2022-12-31T05:01:28.913Z,16.91
2022-12-31T05:06:30.425Z,16.93
2022-12-31T05:11:31.930Z,16.87
2022-12-31T05:16:33.402Z,16.90
2022-12-31T05:21:35.274Z,16.91
2022-12-31T05:26:36.737Z,16.85
2022-12-31T05:31:38.151Z,16.82
2022-12-31T05:36:39.691Z,16.82
2022-12-31T05:41:41.071Z,16.85
2022-12-31T05:46:42.531Z,16.89
2022-12-31T05:51:44.206Z,16.84
2022-12-31T05:56:45.625Z,16.73
2022-12-31T06:01:47.177Z,16.67
2022-12-31T06:06:49.081Z,16.63
2022-12-31T06:11:50.533Z,16.67
2022-12-31T06:16:51.940Z,16.69
2022-12-31T06:21:53.355Z,16.69
2022-12-31T06:26:54.778Z,16.65
2022-12-31T06:31:56.256Z,16.58
2022-12-31T06:36:59.145Z,16.54
2022-12-31T06:42:00.670Z,16.45
2022-12-31T06:47:02.239Z,16.45
2022-12-31T06:52:03.756Z,16.54
2022-12-31T06:57:05.584Z,16.61
2022-12-31T07:02:28.880Z,16.63
2022-12-31T07:07:53.640Z,16.60
2022-12-31T07:13:07.667Z,16.64
2022-12-31T07:18:28.781Z,16.64
2022-12-31T07:23:30.509Z,16.66
2022-12-31T07:28:38.619Z,16.76
2022-12-31T07:33:47.776Z,16.84
2022-12-31T07:39:08.645Z,16.95
2022-12-31T07:44:49.106Z,17.07
2022-12-31T07:49:50.689Z,17.13
2022-12-31T07:54:52.190Z,17.24
2022-12-31T08:00:05.436Z,17.32
2022-12-31T08:05:32.067Z,17.34
2022-12-31T08:10:55.346Z,17.37
2022-12-31T08:15:57.053Z,17.48
2022-12-31T08:21:04.775Z,17.59
2022-12-31T08:26:14.849Z,17.70
2022-12-31T08:31:21.211Z,17.85
2022-12-31T08:36:45.348Z,18.02
2022-12-31T08:41:51.148Z,18.28
2022-12-31T08:47:34.160Z,18.84
2022-12-31T08:52:38.768Z,19.29
2022-12-31T08:58:04.993Z,19.60
2022-12-31T09:03:31.099Z,19.95
2022-12-31T09:08:56.143Z,19.95
2022-12-31T09:14:14.363Z,20.13
2022-12-31T09:19:15.790Z,20.09
2022-12-31T09:24:17.533Z,20.23
2022-12-31T09:29:38.577Z,20.69
2022-12-31T09:35:04.163Z,21.49
2022-12-31T09:40:46.069Z,22.09
2022-12-31T09:46:09.751Z,21.76
2022-12-31T09:51:21.673Z,21.65
2022-12-31T09:56:36.395Z,22.36
2022-12-31T10:02:05.520Z,22.95
2022-12-31T10:07:29.219Z,23.17
2022-12-31T10:12:52.568Z,23.38
2022-12-31T10:18:35.339Z,23.38
2022-12-31T10:24:02.912Z,23.22
2022-12-31T10:29:29.421Z,23.32
2022-12-31T10:34:52.759Z,23.24
2022-12-31T10:40:09.567Z,23.24
2022-12-31T10:45:26.326Z,23.54
2022-12-31T10:51:02.864Z,22.97
2022-12-31T10:56:45.171Z,22.99
2022-12-31T11:02:19.026Z,22.89
2022-12-31T11:07:50.161Z,23.39
2022-12-31T11:13:06.710Z,23.23
2022-12-31T11:18:36.039Z,23.39
2022-12-31T11:24:01.447Z,23.26
2022-12-31T11:29:23.403Z,23.26
2022-12-31T11:34:51.793Z,23.21
2022-12-31T11:40:21.593Z,23.24
2022-12-31T11:45:53.918Z,23.32
2022-12-31T11:51:13.195Z,23.29
2022-12-31T11:56:20.700Z,23.27
2022-12-31T12:01:30.691Z,23.24
2022-12-31T12:06:33.181Z,23.00
2022-12-31T12:11:39.272Z,22.64
2022-12-31T12:16:40.879Z,22.27
2022-12-31T12:21:49.328Z,21.96
2022-12-31T12:26:50.892Z,21.81
2022-12-31T12:32:07.481Z,21.66
2022-12-31T12:37:24.072Z,21.54
2022-12-31T12:42:25.563Z,21.51
2022-12-31T12:47:27.197Z,21.44
2022-12-31T12:53:01.007Z,21.42
2022-12-31T12:58:19.469Z,21.37
2022-12-31T13:09:29.996Z,21.08
2022-12-31T13:14:52.340Z,21.16
2022-12-31T13:19:57.899Z,21.10
2022-12-31T13:25:07.841Z,20.98
2022-12-31T13:30:35.209Z,20.85
2022-12-31T13:35:44.711Z,20.78
2022-12-31T13:40:48.349Z,20.72
2022-12-31T13:46:09.473Z,20.65
2022-12-31T13:51:21.114Z,20.55
2022-12-31T13:56:27.290Z,20.44
2022-12-31T14:01:36.887Z,20.34
2022-12-31T14:06:45.899Z,20.25
2022-12-31T14:12:04.688Z,20.18
2022-12-31T14:17:14.869Z,20.06
2022-12-31T14:22:54.873Z,19.96
2022-12-31T14:27:57.513Z,19.81
2022-12-31T14:33:15.950Z,19.73
2022-12-31T14:38:33.221Z,19.66
2022-12-31T14:43:53.198Z,19.56
2022-12-31T14:49:00.536Z,19.48
2022-12-31T14:54:02.161Z,19.40
2022-12-31T14:59:04.008Z,19.31
2022-12-31T15:04:14.288Z,19.21
2022-12-31T15:09:34.097Z,19.10
2022-12-31T15:15:00.421Z,18.94
2022-12-31T15:20:14.994Z,18.73
2022-12-31T15:25:21.597Z,18.53
2022-12-31T15:30:38.451Z,18.34
2022-12-31T15:35:52.791Z,18.09
2022-12-31T15:40:54.364Z,17.92
2022-12-31T15:45:57.683Z,17.78
2022-12-31T15:51:01.394Z,17.71
2022-12-31T15:56:03.619Z,17.68
2022-12-31T16:01:42.029Z,17.53
2022-12-31T16:06:50.431Z,17.44
2022-12-31T16:11:54.407Z,17.36
2022-12-31T16:16:59.100Z,17.35
2022-12-31T16:22:28.835Z,17.38
2022-12-31T16:27:31.080Z,17.47
2022-12-31T16:32:38.331Z,17.57
2022-12-31T16:37:39.865Z,17.68
2022-12-31T16:42:44.429Z,17.73
2022-12-31T16:47:46.242Z,17.81
2022-12-31T16:52:54.257Z,17.88
2022-12-31T16:58:01.712Z,17.93
2022-12-31T17:03:20.008Z,18.00
2022-12-31T17:08:28.193Z,18.04
2022-12-31T17:13:34.002Z,18.08
2022-12-31T17:18:38.521Z,18.06
2022-12-31T17:23:41.449Z,18.04
2022-12-31T17:28:48.773Z,17.96
2022-12-31T17:33:54.041Z,17.87
2022-12-31T17:38:55.598Z,17.79
2022-12-31T17:43:57.798Z,17.69
2022-12-31T17:49:02.550Z,17.56
2022-12-31T17:54:13.555Z,17.44
2022-12-31T17:59:22.139Z,17.35
2022-12-31T18:04:23.606Z,17.27
2022-12-31T18:09:25.089Z,17.16
2022-12-31T18:14:26.513Z,17.05
2022-12-31T18:20:02.722Z,16.95
2022-12-31T18:24:52.198Z,16.81
2022-12-31T18:29:55.742Z,16.73
2022-12-31T18:35:03.192Z,16.73
2022-12-31T18:40:05.158Z,16.75
2022-12-31T18:45:16.634Z,16.76
2022-12-31T18:50:18.191Z,16.84
2022-12-31T18:55:26.962Z,16.84
2022-12-31T19:00:28.376Z,16.87
2022-12-31T19:05:32.118Z,16.97
2022-12-31T19:10:33.980Z,17.05
2022-12-31T19:15:43.123Z,17.09
2022-12-31T19:20:44.961Z,17.09
2022-12-31T19:25:47.717Z,17.24
2022-12-31T19:30:49.599Z,17.43
2022-12-31T19:35:51.071Z,17.63
2022-12-31T19:40:53.567Z,17.70
2022-12-31T19:45:55.073Z,17.73
2022-12-31T19:50:56.648Z,17.78
2022-12-31T19:55:58.056Z,17.74
2022-12-31T20:01:02.845Z,17.71
2022-12-31T20:06:10.845Z,17.71
2022-12-31T20:11:20.394Z,17.66
2022-12-31T20:16:26.576Z,17.50
2022-12-31T20:21:29.411Z,17.38
2022-12-31T20:26:30.867Z,17.27
2022-12-31T20:31:32.423Z,17.16
2022-12-31T20:36:33.830Z,17.11
2022-12-31T20:41:35.294Z,17.04
2022-12-31T20:46:36.956Z,17.01
2022-12-31T20:51:38.375Z,17.03
2022-12-31T20:56:41.536Z,17.05
2022-12-31T21:02:19.276Z,17.02
2022-12-31T21:07:04.497Z,17.03
2022-12-31T21:12:24.775Z,17.04
2022-12-31T21:17:26.209Z,17.01
2022-12-31T21:22:27.700Z,17.04
2022-12-31T21:27:29.764Z,17.09
2022-12-31T21:32:31.162Z,17.11
2022-12-31T21:37:58.788Z,17.16
2022-12-31T21:42:54.036Z,17.29
2022-12-31T21:48:17.831Z,17.35
2022-12-31T21:53:26.168Z,17.30
2022-12-31T21:58:29.579Z,17.17
2022-12-31T22:03:31.850Z,17.04
2022-12-31T22:08:33.403Z,16.96
2022-12-31T22:13:36.161Z,16.80
2022-12-31T22:18:40.543Z,16.68
2022-12-31T22:23:42.841Z,16.62
2022-12-31T22:28:46.088Z,16.58
2022-12-31T22:33:48.052Z,16.55
2022-12-31T22:38:50.958Z,16.45
2022-12-31T22:44:02.619Z,16.44
2022-12-31T22:49:05.182Z,16.40
2022-12-31T22:54:06.636Z,16.32
2022-12-31T22:59:08.293Z,16.29
2022-12-31T23:04:09.895Z,16.23
2022-12-31T23:09:31.785Z,16.24
2022-12-31T23:14:52.324Z,16.24
2022-12-31T23:20:12.622Z,16.23
2022-12-31T23:25:14.055Z,16.27
2022-12-31T23:30:15.606Z,16.24
2022-12-31T23:35:17.149Z,16.21
2022-12-31T23:40:21.536Z,16.18
2022-12-31T23:45:25.874Z,16.14
2022-12-31T23:50:31.193Z,16.11
2022-12-31T23:55:32.937Z,16.10
